Time;durP1;ratioP1;P1;durP2;ratioP2;P2;SDS_P1;SDS_P2;PMS_P1;PMS_P2;Temp;Humidity;BMP_temperature;BMP_pressure;BME280_temperature;BME280_humidity;BME280_pressure;Samples;Min_cycle;Max_cycle;Signal;HPM_P1;HPM_P2
2022/01/20 00:01:44;;;;;;;9.77;7.20;;;;;;;;;;5041425;28;20590;-86
2022/01/20 00:04:29;;;;;;;10.57;7.50;;;;;;;;;;5015348;28;20192;-85
2022/01/20 00:23:43;;;;;;;10.90;7.72;;;;;;;;;;5046658;28;20193;-86
2022/01/20 00:26:14;;;;;;;8.50;6.63;;;;;;;;;;5028395;28;20651;-86
2022/01/20 00:28:47;;;;;;;7.63;6.47;;;;;;;;;;5027674;28;20267;-86
2022/01/20 00:31:40;;;;;;;12.57;7.45;;;;;;;;;;5029649;28;20177;-87
2022/01/20 00:34:19;;;;;;;10.25;8.00;;;;;;;;;;5010507;28;20205;-86
2022/01/20 00:39:30;;;;;;;13.90;8.15;;;;;;;;;;5045237;28;20240;-86
2022/01/20 00:41:56;;;;;;;9.75;8.15;;;;;;;;;;5045939;28;20208;-86
2022/01/20 00:44:23;;;;;;;11.68;7.32;;;;;;;;;;5027457;28;20230;-86
2022/01/20 00:46:49;;;;;;;12.98;7.75;;;;;;;;;;5028202;28;20271;-86
2022/01/20 00:49:15;;;;;;;11.10;8.80;;;;;;;;;;5028719;28;20248;-86
2022/01/20 00:51:42;;;;;;;10.70;7.78;;;;;;;;;;5026942;28;20616;-86
2022/01/20 00:54:08;;;;;;;8.20;6.85;;;;;;;;;;5026950;28;20241;-87
2022/01/20 00:56:34;;;;;;;12.05;8.20;;;;;;;;;;5044739;28;20182;-86
2022/01/20 00:59:00;;;;;;;11.88;7.43;;;;;;;;;;5028873;28;20212;-86
2022/01/20 01:01:26;;;;;;;11.70;7.10;;;;;;;;;;5027008;28;20174;-86
2022/01/20 01:03:52;;;;;;;9.20;6.57;;;;;;;;;;5026997;28;20416;-87
2022/01/20 01:08:50;;;;;;;13.30;5.70;;;;;;;;;;5044135;28;20643;-86
2022/01/20 01:11:17;;;;;;;11.70;7.28;;;;;;;;;;5027828;28;20189;-86
2022/01/20 01:13:43;;;;;;;7.90;6.90;;;;;;;;;;5028388;28;20430;-85
2022/01/20 01:16:11;;;;;;;12.15;6.28;;;;;;;;;;5026760;28;20194;-86
2022/01/20 01:24:07;;;;;;;11.68;6.47;;;;;;;;;;5045719;28;20327;-87
2022/01/20 01:26:33;;;;;;;10.48;6.85;;;;;;;;;;5045690;28;20643;-86
2022/01/20 01:29:00;;;;;;;8.27;6.18;;;;;;;;;;5028359;28;20646;-86
2022/01/20 01:31:32;;;;;;;10.32;6.40;;;;;;;;;;5027532;28;20174;-86
2022/01/20 01:34:04;;;;;;;7.20;6.43;;;;;;;;;;5044141;28;20664;-86
2022/01/20 01:36:44;;;;;;;7.70;5.72;;;;;;;;;;5044198;28;20177;-87
2022/01/20 01:39:10;;;;;;;7.22;6.00;;;;;;;;;;5027318;28;20177;-86
2022/01/20 01:41:37;;;;;;;7.60;6.32;;;;;;;;;;5044856;28;20189;-85
2022/01/20 01:44:05;;;;;;;8.90;6.75;;;;;;;;;;5045536;28;20178;-86
2022/01/20 01:46:31;;;;;;;10.77;6.47;;;;;;;;;;5044915;28;20208;-85
2022/01/20 01:48:57;;;;;;;8.05;5.70;;;;;;;;;;5026950;28;20245;-86
2022/01/20 01:51:24;;;;;;;8.63;7.30;;;;;;;;;;5027298;28;20212;-85
2022/01/20 01:53:50;;;;;;;12.93;6.05;;;;;;;;;;5044620;28;20245;-85
2022/01/20 01:56:16;;;;;;;13.45;7.57;;;;;;;;;;5026394;28;20232;-85
2022/01/20 01:58:42;;;;;;;13.13;6.30;;;;;;;;;;5026644;28;20182;-86
2022/01/20 02:01:08;;;;;;;11.77;6.65;;;;;;;;;;5027730;28;20183;-86
2022/01/20 02:03:57;;;;;;;8.73;6.40;;;;;;;;;;5025955;28;20174;-86
2022/01/20 02:09:20;;;;;;;10.18;6.70;;;;;;;;;;5045191;28;20196;-86
2022/01/20 02:20:01;;;;;;;10.73;7.25;;;;;;;;;;5036257;28;20247;-86
2022/01/20 02:22:27;;;;;;;10.20;7.35;;;;;;;;;;5031368;28;20215;-86
2022/01/20 02:24:53;;;;;;;7.13;5.55;;;;;;;;;;5029355;28;20182;-85
2022/01/20 02:27:19;;;;;;;9.07;6.78;;;;;;;;;;5031380;28;20197;-85
2022/01/20 02:29:45;;;;;;;14.93;7.68;;;;;;;;;;5048328;28;20186;-86
2022/01/20 02:32:11;;;;;;;12.32;7.38;;;;;;;;;;5031202;28;20178;-85
2022/01/20 02:34:38;;;;;;;13.70;6.90;;;;;;;;;;5047118;28;20185;-85
2022/01/20 02:37:09;;;;;;;16.30;8.35;;;;;;;;;;5030274;28;20185;-85
2022/01/20 02:44:54;;;;;;;14.52;7.88;;;;;;;;;;5049232;28;20542;-87
2022/01/20 02:47:22;;;;;;;9.43;6.18;;;;;;;;;;5036622;28;20252;-85
2022/01/20 02:49:48;;;;;;;10.13;6.30;;;;;;;;;;5045165;28;20256;-86
2022/01/20 02:52:14;;;;;;;10.20;5.30;;;;;;;;;;5046637;28;20182;-87
2022/01/20 02:54:41;;;;;;;8.52;5.72;;;;;;;;;;5045690;28;20593;-86
2022/01/20 02:57:07;;;;;;;7.53;5.32;;;;;;;;;;5041856;28;20257;-88
2022/01/20 02:59:34;;;;;;;13.07;6.40;;;;;;;;;;5042881;28;20204;-87
2022/01/20 03:02:01;;;;;;;15.82;6.68;;;;;;;;;;5045073;28;20182;-85
2022/01/20 03:04:27;;;;;;;47.53;22.88;;;;;;;;;;5044947;28;20538;-87
2022/01/20 03:06:53;;;;;;;12.93;6.97;;;;;;;;;;5044491;28;20217;-86
2022/01/20 03:09:19;;;;;;;13.65;7.45;;;;;;;;;;5045236;28;20182;-87
2022/01/20 03:11:46;;;;;;;17.25;6.43;;;;;;;;;;5045070;28;20193;-87
2022/01/20 03:14:14;;;;;;;10.63;5.88;;;;;;;;;;5044085;28;20325;-86
2022/01/20 03:16:40;;;;;;;9.40;6.80;;;;;;;;;;5044043;28;20193;-86
2022/01/20 03:19:05;;;;;;;16.88;8.77;;;;;;;;;;5042288;28;20181;-86
2022/01/20 03:21:31;;;;;;;31.58;13.88;;;;;;;;;;5045516;28;20651;-86
2022/01/20 03:23:57;;;;;;;12.20;7.30;;;;;;;;;;5043828;28;20193;-86
2022/01/20 03:26:24;;;;;;;12.43;6.25;;;;;;;;;;5045577;28;20186;-85
2022/01/20 03:28:50;;;;;;;8.23;5.18;;;;;;;;;;5044742;28;20287;-87
2022/01/20 03:31:17;;;;;;;8.57;5.60;;;;;;;;;;5043082;28;20206;-86
2022/01/20 03:33:43;;;;;;;10.98;5.40;;;;;;;;;;5045222;28;20205;-87
2022/01/20 03:36:09;;;;;;;10.63;5.63;;;;;;;;;;5044323;28;20257;-86
2022/01/20 03:38:35;;;;;;;8.20;5.07;;;;;;;;;;5044190;28;20740;-86
2022/01/20 03:41:01;;;;;;;6.53;4.40;;;;;;;;;;5043880;28;20186;-87
2022/01/20 03:43:27;;;;;;;7.78;5.32;;;;;;;;;;5044651;28;20209;-87
2022/01/20 03:45:56;;;;;;;10.48;6.78;;;;;;;;;;5043317;28;20173;-87
2022/01/20 03:48:24;;;;;;;7.32;4.63;;;;;;;;;;5046497;28;20205;-87
2022/01/20 03:50:59;;;;;;;7.93;5.50;;;;;;;;;;5043523;28;20189;-87
2022/01/20 03:53:25;;;;;;;8.07;4.95;;;;;;;;;;5043263;28;20177;-87
2022/01/20 03:55:51;;;;;;;7.97;4.90;;;;;;;;;;5044834;28;20189;-85
2022/01/20 03:58:17;;;;;;;6.13;4.63;;;;;;;;;;5041998;28;20190;-85
2022/01/20 04:00:44;;;;;;;8.15;4.60;;;;;;;;;;5044012;28;20196;-86
2022/01/20 04:03:11;;;;;;;7.40;4.80;;;;;;;;;;5044415;28;20174;-86
2022/01/20 04:05:44;;;;;;;7.50;4.38;;;;;;;;;;5042827;28;20185;-87
2022/01/20 04:08:10;;;;;;;8.80;4.65;;;;;;;;;;5044142;28;20216;-86
2022/01/20 04:10:36;;;;;;;8.82;5.25;;;;;;;;;;5043562;28;20181;-85
2022/01/20 04:13:02;;;;;;;7.22;4.97;;;;;;;;;;5043423;28;20174;-86
2022/01/20 04:15:37;;;;;;;13.15;4.45;;;;;;;;;;5045010;28;20174;-85
2022/01/20 04:18:03;;;;;;;8.15;4.10;;;;;;;;;;5043706;28;20184;-86
2022/01/20 04:20:29;;;;;;;7.50;5.40;;;;;;;;;;5043259;28;20209;-86
2022/01/20 04:22:55;;;;;;;7.97;4.20;;;;;;;;;;5043564;28;20193;-87
2022/01/20 04:25:21;;;;;;;10.05;4.63;;;;;;;;;;5044147;28;20241;-86
2022/01/20 04:27:47;;;;;;;10.82;5.82;;;;;;;;;;5043509;28;20501;-86
2022/01/20 04:30:13;;;;;;;8.73;4.30;;;;;;;;;;5044344;28;20170;-87
2022/01/20 04:32:39;;;;;;;6.47;4.38;;;;;;;;;;5043758;28;20460;-88
2022/01/20 04:35:05;;;;;;;11.00;5.35;;;;;;;;;;5043235;28;20255;-87
2022/01/20 04:37:31;;;;;;;10.63;4.43;;;;;;;;;;5044669;28;20232;-86
2022/01/20 04:39:59;;;;;;;7.22;4.38;;;;;;;;;;5043209;28;20190;-87
2022/01/20 04:42:27;;;;;;;7.13;4.45;;;;;;;;;;5044488;28;20178;-86
2022/01/20 04:44:59;;;;;;;8.05;4.97;;;;;;;;;;5041940;28;20194;-86
2022/01/20 04:58:08;;;;;;;5.38;3.60;;;;;;;;;;5042771;28;20193;-86
2022/01/20 05:00:34;;;;;;;4.80;3.65;;;;;;;;;;5042895;28;20178;-85
2022/01/20 05:03:04;;;;;;;5.20;3.60;;;;;;;;;;5043993;28;20264;-87
2022/01/20 05:05:30;;;;;;;3.95;2.75;;;;;;;;;;5043121;28;20193;-86
2022/01/20 05:07:56;;;;;;;6.53;3.70;;;;;;;;;;5043558;28;20244;-85
2022/01/20 05:10:22;;;;;;;8.40;3.70;;;;;;;;;;5042441;28;20232;-87
2022/01/20 05:15:20;;;;;;;6.57;2.83;;;;;;;;;;5043139;28;20174;-87
2022/01/20 05:17:46;;;;;;;5.55;4.05;;;;;;;;;;5042916;28;20189;-88
2022/01/20 05:20:12;;;;;;;6.22;3.58;;;;;;;;;;5042449;28;20236;-86
2022/01/20 05:22:39;;;;;;;5.65;3.55;;;;;;;;;;5042558;28;20514;-86
2022/01/20 05:25:05;;;;;;;3.78;3.03;;;;;;;;;;5041857;28;20193;-86
2022/01/20 05:27:31;;;;;;;6.03;3.55;;;;;;;;;;5038908;28;20197;-86
2022/01/20 05:29:58;;;;;;;5.95;3.75;;;;;;;;;;5043693;28;20178;-87
2022/01/20 05:32:24;;;;;;;7.18;3.47;;;;;;;;;;5041654;28;20178;-87
2022/01/20 05:34:50;;;;;;;5.70;3.22;;;;;;;;;;5043321;28;20213;-87
2022/01/20 05:37:16;;;;;;;6.50;3.33;;;;;;;;;;5042649;28;20627;-87
2022/01/20 05:39:43;;;;;;;4.40;3.10;;;;;;;;;;5041080;28;20253;-86
2022/01/20 05:42:09;;;;;;;3.45;2.42;;;;;;;;;;5042876;28;20185;-86
2022/01/20 05:44:35;;;;;;;3.90;3.42;;;;;;;;;;5041906;28;20694;-87
2022/01/20 05:47:06;;;;;;;5.35;3.30;;;;;;;;;;5040616;28;20248;-86
2022/01/20 05:49:33;;;;;;;5.50;3.25;;;;;;;;;;5042270;28;20189;-87
2022/01/20 05:51:59;;;;;;;7.90;2.80;;;;;;;;;;5042934;28;20173;-87
2022/01/20 05:54:25;;;;;;;2.05;1.90;;;;;;;;;;5042229;28;20256;-87
2022/01/20 05:56:51;;;;;;;3.35;2.33;;;;;;;;;;5039644;28;20189;-87
2022/01/20 05:59:17;;;;;;;5.35;2.78;;;;;;;;;;5041735;28;20182;-88
2022/01/20 06:01:46;;;;;;;6.75;2.90;;;;;;;;;;5041889;28;20231;-87
2022/01/20 06:04:12;;;;;;;5.10;2.60;;;;;;;;;;5043580;28;20182;-86
2022/01/20 06:06:38;;;;;;;5.30;2.38;;;;;;;;;;5041879;28;20185;-86
2022/01/20 06:09:05;;;;;;;8.30;2.70;;;;;;;;;;5041195;28;20185;-86
2022/01/20 06:11:32;;;;;;;5.93;3.45;;;;;;;;;;5041514;28;20184;-88
2022/01/20 06:13:58;;;;;;;7.03;2.53;;;;;;;;;;5042387;28;20220;-88
2022/01/20 06:16:24;;;;;;;4.55;2.40;;;;;;;;;;5030044;28;20179;-88
2022/01/20 06:18:50;;;;;;;10.02;2.95;;;;;;;;;;5042264;28;20184;-88
2022/01/20 06:21:17;;;;;;;4.50;2.80;;;;;;;;;;5042508;28;20223;-88
2022/01/20 06:23:43;;;;;;;4.43;2.25;;;;;;;;;;5037210;28;20194;-87
2022/01/20 06:26:09;;;;;;;4.10;2.45;;;;;;;;;;5041239;28;20718;-87
2022/01/20 06:28:36;;;;;;;6.18;2.90;;;;;;;;;;5041600;28;20217;-86
2022/01/20 06:31:02;;;;;;;6.25;2.35;;;;;;;;;;5041020;28;20189;-86
2022/01/20 06:33:28;;;;;;;6.13;3.08;;;;;;;;;;5042064;28;20538;-87
2022/01/20 06:35:54;;;;;;;6.03;2.50;;;;;;;;;;5041532;28;20190;-86
2022/01/20 06:38:20;;;;;;;3.22;2.08;;;;;;;;;;5036979;28;20600;-84
2022/01/20 06:40:46;;;;;;;4.43;2.40;;;;;;;;;;5040791;28;20276;-85
2022/01/20 06:43:12;;;;;;;4.13;2.55;;;;;;;;;;5042366;28;20185;-87
2022/01/20 06:45:38;;;;;;;4.57;2.38;;;;;;;;;;5039791;28;20188;-86
2022/01/20 06:48:04;;;;;;;4.63;1.95;;;;;;;;;;5041309;28;20225;-86
2022/01/20 06:50:30;;;;;;;4.25;2.80;;;;;;;;;;5040749;28;20209;-86
2022/01/20 06:52:56;;;;;;;7.72;3.08;;;;;;;;;;5040770;28;20185;-87
2022/01/20 06:55:23;;;;;;;6.68;2.40;;;;;;;;;;5040664;28;20240;-84
2022/01/20 06:57:49;;;;;;;4.65;2.22;;;;;;;;;;5042252;28;20173;-83
2022/01/20 07:00:17;;;;;;;4.30;3.05;;;;;;;;;;5055650;28;20316;-83
2022/01/20 07:02:43;;;;;;;6.88;3.42;;;;;;;;;;5040900;28;20190;-85
2022/01/20 07:05:10;;;;;;;7.88;2.67;;;;;;;;;;5041095;28;20657;-85
2022/01/20 07:07:36;;;;;;;11.27;4.05;;;;;;;;;;5041327;28;20632;-85
2022/01/20 07:10:03;;;;;;;8.70;2.95;;;;;;;;;;5042071;28;20186;-87
2022/01/20 07:12:29;;;;;;;3.83;3.25;;;;;;;;;;5045357;28;20166;-86
2022/01/20 07:14:55;;;;;;;9.13;3.20;;;;;;;;;;5035085;28;20213;-85
2022/01/20 07:17:21;;;;;;;8.45;4.30;;;;;;;;;;5040504;28;20182;-86
2022/01/20 07:19:47;;;;;;;5.63;3.15;;;;;;;;;;5045867;28;20319;-87
2022/01/20 07:22:13;;;;;;;5.72;2.92;;;;;;;;;;5044821;28;20216;-87
2022/01/20 07:24:39;;;;;;;5.50;3.38;;;;;;;;;;5044728;28;20181;-85
2022/01/20 07:27:05;;;;;;;6.90;3.45;;;;;;;;;;5044443;28;20224;-84
2022/01/20 07:29:31;;;;;;;5.60;3.58;;;;;;;;;;5043546;28;20185;-85
2022/01/20 07:31:59;;;;;;;5.88;2.85;;;;;;;;;;5044327;28;20213;-85
2022/01/20 07:34:25;;;;;;;7.95;3.78;;;;;;;;;;5044285;28;20196;-88
2022/01/20 07:36:51;;;;;;;6.72;3.22;;;;;;;;;;5035075;28;20174;-86
2022/01/20 07:39:17;;;;;;;3.58;3.00;;;;;;;;;;5045444;28;20197;-86
2022/01/20 07:41:44;;;;;;;7.22;3.78;;;;;;;;;;5045249;28;20187;-87
2022/01/20 07:44:10;;;;;;;11.65;4.35;;;;;;;;;;5043931;28;20182;-87
2022/01/20 07:46:36;;;;;;;10.45;4.60;;;;;;;;;;5042281;28;20221;-87
2022/01/20 07:49:03;;;;;;;6.40;3.78;;;;;;;;;;5045448;28;20209;-87
2022/01/20 07:51:29;;;;;;;8.32;3.42;;;;;;;;;;5045940;28;20597;-86
2022/01/20 07:53:55;;;;;;;4.75;3.13;;;;;;;;;;5040565;28;20197;-83
2022/01/20 07:56:21;;;;;;;3.17;2.88;;;;;;;;;;5044318;28;20622;-83
2022/01/20 07:58:47;;;;;;;6.38;3.60;;;;;;;;;;5043591;28;20201;-83
2022/01/20 08:01:13;;;;;;;8.95;3.90;;;;;;;;;;5043531;28;20192;-84
2022/01/20 08:03:39;;;;;;;5.57;4.20;;;;;;;;;;5041879;28;20190;-84
2022/01/20 08:06:05;;;;;;;8.65;3.55;;;;;;;;;;5029651;28;20182;-84
2022/01/20 08:08:31;;;;;;;6.65;2.72;;;;;;;;;;5043503;28;20236;-84
2022/01/20 08:10:57;;;;;;;4.50;3.10;;;;;;;;;;5042670;28;20181;-84
2022/01/20 08:13:23;;;;;;;5.13;3.20;;;;;;;;;;5040064;28;20296;-84
2022/01/20 08:15:49;;;;;;;3.83;3.50;;;;;;;;;;5034960;28;20217;-84
2022/01/20 08:18:15;;;;;;;8.48;3.50;;;;;;;;;;5056803;28;20193;-84
2022/01/20 08:20:41;;;;;;;7.15;3.63;;;;;;;;;;5044022;28;20236;-83
2022/01/20 08:23:07;;;;;;;6.38;4.78;;;;;;;;;;5041442;28;20185;-84
2022/01/20 08:25:34;;;;;;;5.90;3.22;;;;;;;;;;5040080;28;20347;-84
2022/01/20 08:28:00;;;;;;;6.00;3.67;;;;;;;;;;5032217;28;20197;-84
2022/01/20 08:30:27;;;;;;;5.85;4.15;;;;;;;;;;5039802;28;20170;-83
2022/01/20 08:32:53;;;;;;;13.95;3.80;;;;;;;;;;5041909;28;20186;-84
2022/01/20 08:35:20;;;;;;;13.52;4.13;;;;;;;;;;5036201;28;20194;-84
2022/01/20 08:37:46;;;;;;;4.45;3.83;;;;;;;;;;5041936;28;20185;-84
2022/01/20 08:40:14;;;;;;;9.88;4.82;;;;;;;;;;5039463;28;20261;-85
2022/01/20 08:42:44;;;;;;;12.60;4.53;;;;;;;;;;5026661;28;20186;-83
2022/01/20 08:45:11;;;;;;;17.70;4.88;;;;;;;;;;5037306;28;20179;-84
2022/01/20 08:47:38;;;;;;;6.90;3.70;;;;;;;;;;5040572;28;20260;-85
2022/01/20 08:50:05;;;;;;;7.95;3.47;;;;;;;;;;5036706;28;20258;-83
2022/01/20 08:52:31;;;;;;;6.88;3.58;;;;;;;;;;5040934;28;20256;-84
2022/01/20 08:54:58;;;;;;;8.48;3.63;;;;;;;;;;5042196;28;20174;-84
2022/01/20 08:57:27;;;;;;;9.73;4.38;;;;;;;;;;5042833;28;20182;-83
2022/01/20 08:59:54;;;;;;;9.65;4.75;;;;;;;;;;5038377;28;20186;-84
2022/01/20 09:02:20;;;;;;;10.02;4.45;;;;;;;;;;5039025;28;20253;-84
2022/01/20 09:04:46;;;;;;;8.63;5.22;;;;;;;;;;5040185;28;20194;-85
2022/01/20 09:07:13;;;;;;;7.50;4.47;;;;;;;;;;5039623;28;20252;-84
2022/01/20 09:09:42;;;;;;;7.40;6.57;;;;;;;;;;5035066;28;20520;-84
2022/01/20 09:17:23;;;;;;;7.72;4.93;;;;;;;;;;5036866;28;20193;-86
2022/01/20 09:19:49;;;;;;;15.02;5.30;;;;;;;;;;5033813;28;20182;-86
2022/01/20 09:22:15;;;;;;;7.30;3.80;;;;;;;;;;5038387;28;20190;-86
2022/01/20 09:24:44;;;;;;;9.38;4.70;;;;;;;;;;5035902;28;20178;-87
2022/01/20 09:27:10;;;;;;;9.82;5.15;;;;;;;;;;5040113;28;20205;-86
2022/01/20 09:29:36;;;;;;;9.32;4.55;;;;;;;;;;5040369;28;20209;-88
2022/01/20 09:32:05;;;;;;;9.98;4.60;;;;;;;;;;5033078;28;20189;-87
2022/01/20 09:34:31;;;;;;;9.32;5.30;;;;;;;;;;5032262;28;20204;-88
2022/01/20 09:36:57;;;;;;;17.38;5.38;;;;;;;;;;5039498;28;20186;-87
2022/01/20 09:39:23;;;;;;;9.82;5.10;;;;;;;;;;5039898;28;20213;-86
2022/01/20 09:41:49;;;;;;;6.45;4.50;;;;;;;;;;5039523;28;20189;-88
2022/01/20 09:44:15;;;;;;;12.13;5.43;;;;;;;;;;5039012;28;20189;-87
2022/01/20 09:46:41;;;;;;;7.45;4.28;;;;;;;;;;5039313;28;20243;-88
2022/01/20 09:49:09;;;;;;;11.27;5.10;;;;;;;;;;5039597;28;20243;-87
2022/01/20 09:51:35;;;;;;;11.10;5.00;;;;;;;;;;5041390;28;20192;-87
2022/01/20 09:54:01;;;;;;;13.73;5.45;;;;;;;;;;5035458;28;20197;-86
2022/01/20 09:56:27;;;;;;;11.52;5.63;;;;;;;;;;5039186;28;20205;-87
2022/01/20 09:58:53;;;;;;;15.35;5.13;;;;;;;;;;5039982;28;20178;-86
2022/01/20 10:01:38;;;;;;;15.40;6.22;;;;;;;;;;5038376;28;20250;-87
2022/01/20 10:04:04;;;;;;;8.27;4.65;;;;;;;;;;5040558;28;20188;-86
2022/01/20 10:06:30;;;;;;;15.52;5.78;;;;;;;;;;5053404;28;20185;-87
2022/01/20 10:09:00;;;;;;;15.02;5.32;;;;;;;;;;5038162;28;20229;-87
2022/01/20 10:11:29;;;;;;;10.15;4.72;;;;;;;;;;5038237;28;20264;-88
2022/01/20 10:13:56;;;;;;;12.68;5.25;;;;;;;;;;5038755;28;20186;-86
2022/01/20 10:16:22;;;;;;;11.57;4.90;;;;;;;;;;5038174;28;20209;-88
2022/01/20 10:18:49;;;;;;;11.73;4.38;;;;;;;;;;5042003;28;20249;-88
2022/01/20 10:21:16;;;;;;;7.55;5.13;;;;;;;;;;5041097;28;20634;-85
2022/01/20 10:23:43;;;;;;;8.10;5.05;;;;;;;;;;5037873;28;20185;-86
2022/01/20 10:26:14;;;;;;;10.27;5.63;;;;;;;;;;5035240;28;20186;-87
2022/01/20 10:28:47;;;;;;;14.60;5.40;;;;;;;;;;5027587;28;20255;-87
2022/01/20 10:31:15;;;;;;;14.90;6.10;;;;;;;;;;5037536;28;20217;-87
2022/01/20 10:33:42;;;;;;;16.55;6.05;;;;;;;;;;5041922;28;20166;-87
2022/01/20 10:36:08;;;;;;;13.07;5.30;;;;;;;;;;5042024;28;20272;-87
2022/01/20 10:38:34;;;;;;;9.65;6.30;;;;;;;;;;5038254;28;20189;-87
2022/01/20 10:41:01;;;;;;;10.40;5.07;;;;;;;;;;5038641;28;20265;-87
2022/01/20 10:43:28;;;;;;;13.00;5.32;;;;;;;;;;5040484;28;20196;-87
2022/01/20 10:46:08;;;;;;;14.55;5.28;;;;;;;;;;5040235;28;20280;-87
2022/01/20 10:48:35;;;;;;;12.55;6.15;;;;;;;;;;5059179;28;20193;-88
2022/01/20 10:51:01;;;;;;;15.70;6.45;;;;;;;;;;5038068;28;20178;-86
2022/01/20 10:53:27;;;;;;;14.82;6.72;;;;;;;;;;5037508;28;20192;-88
2022/01/20 10:56:03;;;;;;;11.97;5.70;;;;;;;;;;5043677;28;20197;-89
2022/01/20 10:58:29;;;;;;;9.18;6.10;;;;;;;;;;5042014;28;20507;-87
2022/01/20 11:00:56;;;;;;;12.13;6.35;;;;;;;;;;5042770;28;20201;-87
2022/01/20 11:03:24;;;;;;;12.75;5.75;;;;;;;;;;5045080;28;20192;-88
2022/01/20 11:05:51;;;;;;;18.02;6.82;;;;;;;;;;5043897;28;20252;-89
2022/01/20 11:08:18;;;;;;;11.52;5.53;;;;;;;;;;5041040;28;20296;-89
2022/01/20 11:10:45;;;;;;;11.73;5.38;;;;;;;;;;5040817;28;20205;-87
2022/01/20 11:13:11;;;;;;;16.52;5.95;;;;;;;;;;5043158;28;20250;-86
2022/01/20 11:15:40;;;;;;;10.75;4.65;;;;;;;;;;5035292;28;20189;-87
2022/01/20 11:18:08;;;;;;;10.63;4.80;;;;;;;;;;5045716;28;20181;-87
2022/01/20 11:20:48;;;;;;;5.90;3.80;;;;;;;;;;5037512;28;20585;-85
2022/01/20 11:23:14;;;;;;;11.88;4.25;;;;;;;;;;5032950;28;20182;-86
2022/01/20 11:25:42;;;;;;;16.23;4.60;;;;;;;;;;5039578;28;20198;-85
2022/01/20 11:28:08;;;;;;;9.57;4.00;;;;;;;;;;5040548;28;20491;-87
2022/01/20 11:30:35;;;;;;;6.38;4.25;;;;;;;;;;5042120;28;20182;-88
2022/01/20 11:33:08;;;;;;;9.52;4.10;;;;;;;;;;5042794;28;20245;-85
2022/01/20 11:35:35;;;;;;;8.13;4.13;;;;;;;;;;5040445;28;20189;-87
2022/01/20 11:38:01;;;;;;;7.93;4.32;;;;;;;;;;5038982;28;20224;-88
2022/01/20 11:40:27;;;;;;;8.52;4.40;;;;;;;;;;5042280;28;20201;-86
2022/01/20 11:43:04;;;;;;;8.70;4.13;;;;;;;;;;5040227;28;20186;-89
2022/01/20 11:45:32;;;;;;;8.25;4.03;;;;;;;;;;5042805;28;20188;-89
2022/01/20 11:47:58;;;;;;;16.13;4.60;;;;;;;;;;5038576;28;20221;-87
2022/01/20 11:50:24;;;;;;;12.40;5.85;;;;;;;;;;5040387;28;20209;-87
2022/01/20 11:52:50;;;;;;;15.02;5.30;;;;;;;;;;5041670;28;20197;-83
2022/01/20 11:55:17;;;;;;;7.88;4.00;;;;;;;;;;5039215;28;20182;-86
2022/01/20 11:57:43;;;;;;;10.07;3.70;;;;;;;;;;5043122;28;20263;-86
2022/01/20 12:00:18;;;;;;;7.72;4.25;;;;;;;;;;5043305;28;20319;-87
2022/01/20 12:02:44;;;;;;;9.48;3.58;;;;;;;;;;5039855;28;20181;-85
2022/01/20 12:05:26;;;;;;;10.77;4.18;;;;;;;;;;5040893;28;20235;-85
2022/01/20 12:08:04;;;;;;;7.85;3.30;;;;;;;;;;5041891;28;20209;-84
2022/01/20 12:10:30;;;;;;;9.43;3.97;;;;;;;;;;5040238;28;20236;-87
2022/01/20 12:13:13;;;;;;;8.02;3.45;;;;;;;;;;5041168;28;20188;-86
2022/01/20 12:16:00;;;;;;;20.48;3.67;;;;;;;;;;5040866;28;20184;-86
2022/01/20 12:18:26;;;;;;;10.40;3.58;;;;;;;;;;5045655;28;20244;-85
2022/01/20 12:20:52;;;;;;;6.68;2.97;;;;;;;;;;5041448;28;20181;-87
2022/01/20 12:23:19;;;;;;;17.70;3.63;;;;;;;;;;5042468;28;20189;-84
2022/01/20 12:25:46;;;;;;;8.57;3.70;;;;;;;;;;5040207;28;20255;-89
2022/01/20 12:28:16;;;;;;;8.32;3.80;;;;;;;;;;5039675;28;20233;-87
2022/01/20 12:30:47;;;;;;;9.27;3.88;;;;;;;;;;5043273;28;20174;-88
2022/01/20 12:33:15;;;;;;;6.03;3.05;;;;;;;;;;5040858;28;20194;-85
2022/01/20 12:35:46;;;;;;;4.40;2.70;;;;;;;;;;5041197;28;20588;-86
2022/01/20 12:38:21;;;;;;;8.52;2.88;;;;;;;;;;5040570;28;20192;-90
2022/01/20 12:40:48;;;;;;;6.32;2.50;;;;;;;;;;5041581;28;20262;-91
2022/01/20 12:43:14;;;;;;;6.80;2.40;;;;;;;;;;5040407;28;20179;-83
2022/01/20 12:45:56;;;;;;;10.60;3.13;;;;;;;;;;5041777;28;20178;-86
2022/01/20 12:48:22;;;;;;;6.65;2.40;;;;;;;;;;5022964;28;20636;-85
2022/01/20 12:50:51;;;;;;;7.60;3.23;;;;;;;;;;5004327;28;20175;-84
2022/01/20 12:53:18;;;;;;;11.07;3.30;;;;;;;;;;5017087;28;20493;-83
2022/01/20 12:55:53;;;;;;;9.00;3.63;;;;;;;;;;5000715;28;20179;-83
2022/01/20 12:58:19;;;;;;;5.30;2.75;;;;;;;;;;5001351;28;20197;-83
2022/01/20 13:00:45;;;;;;;7.50;3.25;;;;;;;;;;5022087;28;20650;-87
2022/01/20 13:03:13;;;;;;;8.65;3.00;;;;;;;;;;5006248;28;20179;-83
2022/01/20 13:05:41;;;;;;;6.30;3.20;;;;;;;;;;5020398;28;20186;-86
2022/01/20 13:08:07;;;;;;;9.82;2.75;;;;;;;;;;5000014;28;20238;-84
2022/01/20 13:10:34;;;;;;;8.38;3.55;;;;;;;;;;4989180;28;20179;-86
2022/01/20 13:13:05;;;;;;;6.20;3.10;;;;;;;;;;5000525;28;20171;-88
2022/01/20 13:15:31;;;;;;;5.45;2.35;;;;;;;;;;5023483;28;20220;-83
2022/01/20 13:18:13;;;;;;;6.20;2.40;;;;;;;;;;4999313;28;20199;-85
2022/01/20 13:20:42;;;;;;;8.52;3.63;;;;;;;;;;4999453;28;20255;-83
2022/01/20 13:25:41;;;;;;;9.88;4.15;;;;;;;;;;5010429;28;20202;-84
2022/01/20 13:28:08;;;;;;;9.45;2.65;;;;;;;;;;5004129;28;20203;-85
2022/01/20 13:30:36;;;;;;;6.18;2.20;;;;;;;;;;5006310;28;20177;-84
2022/01/20 13:33:06;;;;;;;5.40;2.30;;;;;;;;;;5017812;28;20204;-87
2022/01/20 13:35:43;;;;;;;7.47;3.25;;;;;;;;;;5003212;28;20194;-85
2022/01/20 13:38:09;;;;;;;4.63;2.03;;;;;;;;;;5001800;28;20209;-87
2022/01/20 13:40:36;;;;;;;7.20;1.80;;;;;;;;;;5002309;28;20252;-86
2022/01/20 13:45:53;;;;;;;4.93;2.17;;;;;;;;;;5020342;28;20225;-83
2022/01/20 13:48:27;;;;;;;7.45;2.30;;;;;;;;;;5042051;28;20659;-85
2022/01/20 13:50:57;;;;;;;8.00;2.72;;;;;;;;;;5038943;28;20249;-84
2022/01/20 13:53:26;;;;;;;8.90;2.50;;;;;;;;;;5037489;28;20186;-85
2022/01/20 13:55:53;;;;;;;4.28;2.03;;;;;;;;;;5039526;28;20284;-86
2022/01/20 13:58:29;;;;;;;8.75;3.58;;;;;;;;;;5039214;28;20189;-88
2022/01/20 14:00:56;;;;;;;7.10;2.28;;;;;;;;;;5041635;28;20189;-85
2022/01/20 14:03:22;;;;;;;8.95;3.08;;;;;;;;;;5036725;28;20186;-89
2022/01/20 14:05:50;;;;;;;9.98;2.45;;;;;;;;;;5035580;28;20220;-87
2022/01/20 14:08:16;;;;;;;9.40;3.00;;;;;;;;;;5039112;28;20204;-81
2022/01/20 14:10:45;;;;;;;6.65;2.35;;;;;;;;;;5038529;28;20196;-87
2022/01/20 14:13:11;;;;;;;6.30;2.15;;;;;;;;;;5037431;28;20205;-86
2022/01/20 14:15:37;;;;;;;12.40;2.40;;;;;;;;;;5042782;28;20161;-86
2022/01/20 14:18:06;;;;;;;7.22;2.55;;;;;;;;;;5037270;28;20277;-82
2022/01/20 14:20:34;;;;;;;6.53;2.30;;;;;;;;;;5036041;28;20190;-82
2022/01/20 14:23:02;;;;;;;12.70;2.50;;;;;;;;;;5040153;28;20193;-86
2022/01/20 14:25:28;;;;;;;4.50;1.92;;;;;;;;;;5037568;28;20212;-82
2022/01/20 14:27:55;;;;;;;15.23;2.15;;;;;;;;;;5038611;28;20201;-84
2022/01/20 14:30:21;;;;;;;6.85;2.75;;;;;;;;;;5037302;28;20177;-81
2022/01/20 14:32:48;;;;;;;7.65;2.25;;;;;;;;;;5038937;28;20213;-84
2022/01/20 14:35:14;;;;;;;5.50;2.15;;;;;;;;;;5039059;28;20245;-84
2022/01/20 14:37:40;;;;;;;7.93;2.10;;;;;;;;;;5033642;28;20712;-86
2022/01/20 14:40:07;;;;;;;7.47;2.42;;;;;;;;;;5038016;28;20269;-84
2022/01/20 14:42:33;;;;;;;8.77;2.75;;;;;;;;;;5027120;28;20178;-82
2022/01/20 14:44:59;;;;;;;8.18;2.25;;;;;;;;;;5036523;28;20610;-86
2022/01/20 14:47:25;;;;;;;6.20;2.40;;;;;;;;;;5037762;28;20444;-87
2022/01/20 14:49:53;;;;;;;5.28;1.50;;;;;;;;;;5036583;28;20518;-84
2022/01/20 14:52:19;;;;;;;8.50;2.55;;;;;;;;;;5039244;28;20193;-85
2022/01/20 14:54:46;;;;;;;2.30;2.03;;;;;;;;;;5030848;28;20277;-86
2022/01/20 14:57:12;;;;;;;5.60;2.22;;;;;;;;;;5040430;28;20182;-83
2022/01/20 14:59:39;;;;;;;8.90;2.65;;;;;;;;;;5036314;28;20295;-79
2022/01/20 15:02:05;;;;;;;5.95;1.65;;;;;;;;;;5033903;28;20170;-80
2022/01/20 15:04:31;;;;;;;5.90;2.20;;;;;;;;;;5034284;28;20249;-82
2022/01/20 15:06:57;;;;;;;6.13;2.65;;;;;;;;;;5039495;28;20451;-84
2022/01/20 15:09:23;;;;;;;6.47;2.20;;;;;;;;;;5040653;28;20638;-83
2022/01/20 15:11:49;;;;;;;2.92;1.75;;;;;;;;;;5038329;28;20186;-82
2022/01/20 15:14:15;;;;;;;4.10;1.67;;;;;;;;;;5037406;28;20177;-85
2022/01/20 15:16:41;;;;;;;5.30;1.90;;;;;;;;;;5036644;28;20256;-84
2022/01/20 15:19:09;;;;;;;7.15;2.15;;;;;;;;;;5036658;28;20773;-85
2022/01/20 15:21:36;;;;;;;6.18;1.80;;;;;;;;;;5042360;28;20173;-84
2022/01/20 15:24:02;;;;;;;9.77;2.00;;;;;;;;;;5051632;28;20182;-83
2022/01/20 15:26:28;;;;;;;5.88;2.30;;;;;;;;;;5026763;28;20217;-85
2022/01/20 15:28:58;;;;;;;6.68;1.60;;;;;;;;;;5029192;28;20217;-84
2022/01/20 15:31:24;;;;;;;8.50;2.15;;;;;;;;;;5041939;28;20178;-84
2022/01/20 15:33:50;;;;;;;4.63;2.15;;;;;;;;;;5044761;28;20170;-82
2022/01/20 15:36:16;;;;;;;6.50;2.95;;;;;;;;;;5045073;28;20246;-85
2022/01/20 15:38:42;;;;;;;11.05;4.93;;;;;;;;;;5042196;28;20194;-83
2022/01/20 15:41:09;;;;;;;10.25;2.78;;;;;;;;;;5041729;28;20186;-83
2022/01/20 15:43:35;;;;;;;5.95;2.15;;;;;;;;;;5040448;28;20182;-85
2022/01/20 15:46:03;;;;;;;5.78;1.90;;;;;;;;;;5042277;28;20183;-82
2022/01/20 15:48:29;;;;;;;5.90;2.28;;;;;;;;;;5044100;28;20202;-83